Date,TemperatureHighF,TemperatureAvgF,TemperatureLowF,DewpointHighF,DewpointAvgF,DewpointLowF,HumidityHigh,HumidityAvg,HumidityLow,PressureMaxIn,PressureMinIn,WindSpeedMaxMPH,WindSpeedAvgMPH,GustSpeedMaxMPH,PrecipitationSumIn
2014-1-1,-1,-6,-9,-6,-11,-13,92,81,76,30.64,30.48,11,4,13,0.00
2014-1-2,6,-6,-17,3,-9,-21,88,83,79,30.63,30.07,18,5,20,0.00
2014-1-3,40,20,4,34,16,2,99,86,77,30.07,29.39,41,10,45,0.12
2014-1-4,15,-2,-13,11,-8,-18,86,75,66,30.52,29.87,36,11,41,0.00
2014-1-5,-10,-16,-18,-15,-22,-26,89,72,63,30.80,30.51,42,11,43,0.00
2014-1-6,-3,-14,-21,-8,-19,-26,78,74,71,30.73,30.27,18,6,20,0.00
2014-1-7,4,0,-4,-1,-4,-9,85,81,76,30.45,30.24,8,4,9,0.00
2014-1-8,12,-2,-16,10,-6,-20,88,83,78,30.53,30.15,18,6,20,0.00
2014-1-9,28,19,13,21,15,10,92,85,71,30.15,29.66,17,6,18,0.00
2014-1-10,32,27,22,27,22,17,93,81,68,29.68,29.55,15,5,18,0.00
2014-1-11,34,24,16,30,20,13,94,83,72,29.81,29.35,18,6,18,0.00
2014-1-12,39,34,22,33,28,18,87,78,68,29.74,29.35,37,7,40,0.01
2014-1-13,34,24,15,31,20,12,92,86,81,29.88,29.53,42,8,45,0.01
2014-1-14,24,16,7,20,9,2,85,75,60,30.39,29.88,36,18,47,0.00
2014-1-15,40,27,6,32,21,1,87,78,65,30.32,29.64,49,15,54,0.00
2014-1-16,35,19,10,28,13,4,89,77,67,30.33,29.66,56,25,61,0.00
2014-1-17,36,21,8,30,18,5,91,85,76,30.29,29.73,37,8,42,0.00
2014-1-18,35,32,28,31,27,24,92,83,75,30.12,29.72,43,16,45,0.00
2014-1-19,39,35,30,31,29,25,87,77,69,29.87,29.58,31,12,35,0.00
2014-1-20,32,8,-8,29,4,-13,92,82,73,30.66,29.86,41,11,41,0.00
2014-1-21,25,11,-5,21,7,-10,88,83,80,30.61,30.14,37,13,38,0.00
2014-1-22,22,0,-14,18,-5,-18,87,79,70,30.90,30.20,37,10,42,0.00
2014-1-23,32,4,-14,24,-1,-19,82,76,67,30.94,30.06,22,7,25,0.00
2014-1-24,40,34,28,34,30,23,95,85,72,30.06,29.72,38,17,41,0.00
2014-1-25,38,21,10,33,16,0,95,81,61,30.11,29.52,41,14,50,0.02
2014-1-26,33,8,-10,29,4,-17,93,82,70,30.50,29.55,47,23,52,0.00
2014-1-27,-4,-9,-15,-12,-16,-20,87,73,67,30.68,30.50,19,8,21,0.00
2014-1-28,7,-3,-13,-1,-10,-18,89,73,63,30.63,30.14,14,6,16,0.00
2014-1-29,28,15,2,19,9,-4,82,76,69,30.14,29.69,24,9,26,0.00
2014-1-30,13,2,-6,8,-3,-11,92,79,72,30.19,29.69,23,10,24,0.00
2014-1-31,18,5,-8,11,-1,-12,89,79,69,30.19,29.94,26,7,27,0.00
2014-2-1,9,4,-1,4,-2,-6,86,78,71,30.34,30.05,32,10,35,0.00
2014-2-2,20,9,1,10,3,-4,83,75,65,30.31,30.17,15,7,16,0.00
2014-2-3,14,6,-4,8,0,-10,81,76,67,30.60,30.28,25,5,26,0.00
2014-2-4,5,-2,-6,0,-7,-10,85,77,65,30.84,30.60,18,6,20,0.00
2014-2-5,-1,-4,-9,-7,-10,-14,90,77,71,30.87,30.74,24,8,24,0.00
2014-2-6,4,-3,-10,-2,-8,-14,94,76,65,30.74,30.29,22,10,23,0.00
2014-2-7,14,1,-9,-1,-9,-16,74,64,49,30.29,30.15,13,5,13,0.00
2014-2-8,10,0,-6,1,-5,-10,92,77,65,30.52,30.15,13,4,14,0.00
2014-2-9,1,-6,-11,-7,-11,-15,94,78,68,30.65,30.51,22,5,22,0.00
2014-2-10,6,-5,-16,-1,-10,-20,92,79,69,30.65,30.40,12,4,13,0.00
2014-2-11,33,12,-3,25,7,-7,98,81,71,30.41,29.90,33,10,35,0.00
2014-2-12,34,9,-5,28,4,-9,88,82,75,30.29,29.45,25,10,26,0.00
2014-2-13,38,8,-2,31,2,-8,91,78,69,30.00,29.46,45,12,49,0.00
2014-2-14,18,9,-2,13,4,-6,87,80,71,30.26,29.85,18,6,21,0.10
2014-2-15,25,16,0,23,13,-4,93,87,81,30.28,29.71,26,9,30,0.00
2014-2-16,20,9,-3,18,6,-6,100,86,80,30.26,29.76,29,10,31,0.10
2014-2-17,41,32,20,29,24,18,93,74,54,29.89,29.56,22,9,24,0.16
2014-2-18,41,33,26,33,27,20,87,79,65,29.86,29.56,19,7,20,0.00
2014-2-19,43,31,19,34,25,16,89,79,62,29.84,29.48,21,8,22,0.00
2014-2-20,33,18,6,26,13,2,85,79,71,29.90,29.59,33,14,35,0.00
2014-2-21,18,8,-1,6,0,-6,83,72,53,30.08,29.84,19,10,20,0.00
2014-2-22,16,8,2,6,1,-4,79,72,62,30.40,30.07,26,12,26,0.00
2014-2-23,13,5,-3,3,-1,-9,92,74,60,30.56,30.40,21,10,24,0.00
2014-2-24,3,-3,-9,-2,-8,-14,82,77,67,30.64,30.51,21,7,22,0.00
2014-2-25,2,-4,-10,-5,-10,-14,82,75,65,30.70,30.52,25,9,26,0.00
2014-2-26,19,6,-9,7,-2,-13,81,69,50,30.52,30.03,37,13,40,0.00
2014-2-27,12,0,-13,3,-6,-18,81,74,62,30.27,29.85,20,8,20,0.00
2014-2-28,12,2,-9,7,-4,-17,92,74,66,30.56,29.82,37,16,43,0.05
2014-3-1,-9,-14,-18,-16,-22,-28,76,65,55,30.84,30.56,23,9,24,0.00
2014-3-2,4,-6,-16,-7,-16,-23,76,61,43,30.84,30.65,16,6,17,0.00
2014-3-3,10,5,1,1,-3,-8,76,67,62,30.65,30.24,21,9,21,0.00
2014-3-4,10,8,6,6,4,1,86,82,75,30.40,30.23,16,8,17,0.00
2014-3-5,24,16,8,20,12,5,92,85,78,30.40,29.97,27,12,30,0.10
2014-3-6,40,29,18,32,25,15,98,86,70,29.97,29.67,24,7,27,0.02
2014-3-7,19,14,9,15,9,4,92,79,69,30.45,29.96,24,11,29,0.00
2014-3-8,42,28,14,35,22,9,88,80,69,30.45,29.91,22,8,22,0.00
2014-3-9,57,45,38,41,35,31,86,70,52,29.91,29.65,15,6,17,0.00
2014-3-10,49,41,36,39,35,32,90,80,65,29.83,29.69,15,7,16,0.00
2014-3-11,42,34,28,33,29,25,92,82,66,30.23,29.83,24,9,26,0.00
2014-3-12,53,36,23,34,28,20,91,73,40,30.20,29.94,23,7,29,0.00
2014-3-13,58,43,33,35,30,27,81,63,37,29.94,29.59,36,13,38,0.00
2014-3-14,43,34,27,31,28,24,90,77,57,29.99,29.73,31,13,31,0.00
2014-3-15,27,22,16,24,16,9,91,77,57,30.56,29.98,25,9,27,0.00
2014-3-16,38,26,16,32,21,12,90,82,75,30.56,29.73,32,11,32,0.03
2014-3-17,46,37,31,38,33,29,95,88,66,29.73,29.44,18,5,19,0.08
2014-3-18,39,32,27,32,29,24,94,88,65,30.07,29.70,23,10,25,0.00
2014-3-19,44,32,22,32,25,20,94,77,43,30.06,29.99,23,6,23,0.03
2014-3-20,55,38,28,34,28,23,86,69,35,30.00,29.72,23,8,24,0.00
2014-3-21,34,24,14,32,18,8,94,80,61,30.53,29.78,34,16,37,0.00
2014-3-22,20,12,4,8,4,1,86,70,46,30.69,30.53,21,9,22,0.00
2014-3-23,31,19,7,20,9,3,86,68,42,30.67,30.37,15,4,17,0.00
2014-3-24,29,20,13,17,10,3,88,67,40,30.47,30.36,37,14,38,0.01
2014-3-25,29,17,4,10,4,1,86,61,34,30.50,30.02,27,7,34,0.00
2014-3-26,39,28,20,24,16,9,83,61,47,30.02,29.54,25,12,26,0.00
2014-3-27,35,27,18,23,16,10,88,66,41,30.06,29.65,26,13,27,0.00
2014-3-28,30,23,14,20,13,4,83,66,43,30.29,30.06,21,7,21,0.00
2014-3-29,62,41,21,32,25,17,88,58,28,30.22,29.71,30,12,31,0.00
2014-3-30,50,41,25,36,32,22,91,72,55,29.90,29.75,40,11,40,0.01
2014-3-31,24,16,11,22,11,4,89,82,68,30.23,29.87,43,25,45,0.00
2014-4-1,28,15,2,11,4,-3,79,63,43,30.30,30.22,21,6,22,0.55
2014-4-2,30,22,12,22,15,7,93,76,54,30.28,30.13,19,9,20,0.00
2014-4-3,31,27,23,28,24,22,95,89,79,30.17,30.06,17,8,19,0.12
2014-4-4,38,30,24,29,24,20,88,80,66,30.19,29.98,16,8,17,0.07
2014-4-5,51,38,26,39,30,23,89,74,55,29.98,29.86,20,6,21,0.00
2014-4-6,57,41,28,39,32,26,94,74,37,29.92,29.78,20,7,22,0.00
2014-4-7,53,40,29,38,31,26,93,73,45,30.09,29.88,38,12,42,0.02
2014-4-8,65,46,28,39,31,24,87,61,31,30.13,29.75,22,6,22,0.00
2014-4-9,74,53,37,41,36,30,78,55,25,29.77,29.48,38,11,40,0.00
2014-4-10,58,44,31,31,26,20,80,51,27,29.92,29.77,25,9,28,0.00
2014-4-11,58,46,34,36,28,20,86,52,25,29.95,29.81,22,6,24,0.00
2014-4-12,55,42,31,40,34,27,96,77,50,30.04,29.73,34,15,35,0.00
2014-4-13,34,27,19,28,17,13,92,67,42,30.35,30.04,33,16,35,0.00
2014-4-14,30,24,19,21,15,8,92,70,44,30.37,30.27,23,7,23,0.03
2014-4-15,42,28,15,22,15,8,81,61,43,30.27,29.80,35,15,35,0.00
2014-4-16,35,29,25,22,19,14,86,68,46,30.35,29.84,32,13,34,0.00
2014-4-17,45,33,22,27,19,14,76,58,40,30.41,30.21,22,10,24,0.00
2014-4-18,62,44,31,42,31,23,79,62,47,30.21,29.61,39,19,41,0.00
2014-4-19,62,49,34,40,35,30,92,61,33,29.99,29.64,33,12,35,0.00
2014-4-20,75,54,36,40,33,26,87,53,23,30.01,29.85,32,12,33,0.00
2014-4-21,59,47,37,38,34,27,86,61,37,30.23,30.01,26,8,26,0.00
2014-4-22,69,52,34,36,32,28,83,50,26,30.14,29.71,34,13,36,0.00
2014-4-23,57,50,38,46,41,35,92,71,53,29.72,29.50,40,18,45,0.04
2014-4-24,62,48,35,38,31,21,94,57,22,29.77,29.69,32,10,37,0.00
2014-4-25,69,52,39,41,34,26,85,54,22,29.82,29.75,24,7,24,0.00
2014-4-26,60,46,37,43,37,34,93,74,45,29.83,29.65,40,19,44,0.06
2014-4-27,44,39,35,39,37,34,100,90,71,29.69,29.55,38,16,38,0.84
2014-4-28,39,35,32,38,33,31,97,95,92,29.97,29.56,17,9,22,0.46
2014-4-29,53,40,32,39,32,26,97,76,40,30.20,29.97,35,13,35,0.16
2014-4-30,51,41,29,33,29,23,86,63,38,30.20,30.12,35,16,38,0.00
2014-5-1,61,47,30,34,28,23,82,52,27,30.14,29.83,34,12,35,0.00
2014-5-2,60,52,42,41,35,24,85,55,28,29.86,29.76,33,14,33,0.00
2014-5-3,50,42,33,38,29,23,85,62,42,30.12,29.86,30,10,30,0.00
2014-5-4,42,37,31,30,26,22,82,66,52,30.16,29.96,24,9,25,0.00
2014-5-5,65,49,37,43,37,30,85,66,44,30.05,29.84,23,11,24,0.00
2014-5-6,64,52,43,50,44,41,91,77,56,29.85,29.66,25,12,25,0.06
2014-5-7,51,44,40,46,41,38,100,88,74,29.94,29.72,27,10,27,0.10
2014-5-8,55,45,39,39,35,31,96,71,43,29.97,29.84,26,12,27,0.00
2014-5-9,63,48,30,36,31,26,92,57,29,29.85,29.72,16,4,16,0.00
2014-5-10,52,46,37,44,38,30,95,76,56,29.82,29.65,22,10,25,0.02
2014-5-11,44,43,37,43,40,33,96,89,81,30.15,29.82,35,17,38,0.01
2014-5-12,53,43,34,35,30,27,92,63,38,30.20,30.11,44,20,45,0.01
2014-5-13,56,43,28,33,27,24,89,57,32,30.28,30.19,33,12,37,0.00
2014-5-14,53,41,28,30,23,17,84,51,27,30.38,30.25,30,10,31,0.00
2014-5-15,61,44,29,31,26,20,87,54,22,30.36,30.11,17,5,20,0.00
2014-5-16,64,50,37,35,29,22,72,48,22,30.12,30.05,16,6,20,0.00
2014-5-17,67,54,32,40,32,22,74,45,27,30.06,29.92,16,5,17,0.01
2014-5-18,73,60,43,53,43,35,75,56,36,29.93,29.60,26,11,27,0.00
2014-5-19,74,61,50,56,50,44,92,68,37,29.73,29.48,28,11,31,0.22
2014-5-20,63,53,42,50,45,40,94,75,54,30.05,29.72,30,11,33,0.00
2014-5-21,70,55,39,48,43,37,96,68,38,30.18,30.05,12,4,13,0.00
2014-5-22,76,62,45,53,47,40,84,60,42,30.16,30.03,22,9,25,0.00
2014-5-23,88,70,54,63,54,44,78,59,23,30.05,29.82,19,8,22,0.00
2014-5-24,81,70,58,64,59,55,90,71,48,29.89,29.72,28,10,31,0.02
2014-5-25,82,71,60,64,60,56,91,70,43,29.83,29.73,21,8,23,0.00
2014-5-26,78,67,59,65,61,58,96,82,61,29.92,29.82,17,8,19,0.00
2014-5-27,79,69,58,62,58,55,91,68,46,29.95,29.83,25,7,32,0.04
2014-5-28,86,72,56,62,57,51,86,61,38,30.03,29.85,27,9,31,0.00
2014-5-29,89,77,65,61,59,56,83,56,34,29.88,29.71,37,17,44,0.00
2014-5-30,76,64,56,61,57,52,95,81,54,30.06,29.87,24,8,34,1.21
2014-5-31,72,63,53,64,58,51,95,84,66,30.03,29.82,15,6,16,0.00
2014-6-1,74,65,58,62,58,54,96,81,61,29.85,29.64,26,7,28,0.00
2014-6-2,60,55,51,54,52,50,96,90,80,29.97,29.73,21,9,23,0.00
2014-6-3,72,60,47,57,53,46,97,78,55,29.97,29.78,13,3,13,0.01
2014-6-4,78,66,56,61,57,52,94,72,49,29.86,29.72,22,8,24,0.00
2014-6-5,78,66,55,58,53,45,86,65,33,29.87,29.72,27,7,32,0.00
2014-6-6,58,51,47,53,45,40,92,79,63,30.15,29.87,17,6,17,0.08
2014-6-7,67,56,42,49,43,39,92,66,40,30.18,30.08,10,4,11,0.00
2014-6-8,68,56,48,53,48,43,95,76,53,30.09,29.99,29,6,33,0.03
2014-6-9,75,61,44,56,48,43,97,66,33,30.04,29.81,24,8,27,0.01
2014-6-10,67,60,51,59,53,47,93,78,61,29.84,29.75,23,6,25,0.07
2014-6-11,65,54,46,60,52,44,95,91,82,30.00,29.74,26,8,29,0.18
2014-6-12,70,56,39,49,43,38,97,67,34,30.15,30.00,19,6,19,0.01
2014-6-13,73,60,44,52,45,40,87,60,43,30.03,29.52,39,14,41,0.00
2014-6-14,64,58,53,59,55,48,96,88,60,29.66,29.53,20,7,25,0.28
2014-6-15,68,57,49,55,50,46,97,79,50,29.71,29.58,24,7,26,0.01
2014-6-16,77,63,47,62,53,43,90,71,55,29.74,29.61,22,8,23,0.00
2014-6-17,78,67,57,63,59,55,93,75,57,29.84,29.67,30,12,30,0.00
2014-6-18,75,66,60,66,60,55,95,82,55,29.83,29.55,46,11,49,0.29
2014-6-19,74,64,56,60,56,49,97,76,43,29.85,29.74,33,5,33,0.00
2014-6-20,76,66,57,58,54,50,87,67,43,29.84,29.75,25,9,26,0.00
2014-6-21,85,71,58,64,57,53,87,64,36,29.81,29.68,17,6,18,0.00
2014-6-22,72,64,53,59,54,49,88,70,57,29.88,29.78,22,7,22,0.00
2014-6-23,76,64,52,60,55,50,94,75,50,29.93,29.86,19,7,20,0.00
2014-6-24,65,60,55,57,55,53,96,86,73,30.06,29.93,16,7,17,0.00
2014-6-25,74,64,54,61,56,51,93,78,60,30.07,29.85,26,6,26,0.83
2014-6-26,83,71,60,70,64,57,95,80,57,29.87,29.57,19,9,20,0.00
2014-6-27,77,71,67,68,65,61,90,82,70,29.58,29.45,24,7,26,0.00
2014-6-28,68,64,59,65,62,56,97,93,78,29.53,29.35,31,10,35,1.17
2014-6-29,77,67,58,58,53,49,89,63,39,29.56,29.50,48,20,48,0.00
2014-6-30,65,61,58,59,53,47,93,76,60,29.64,29.49,43,22,52,0.02
2014-7-1,66,58,51,56,50,44,95,77,46,30.10,29.63,36,17,38,0.03
2014-7-2,74,60,44,54,49,42,96,70,44,30.18,30.09,15,3,15,0.00
2014-7-3,77,65,51,57,53,48,90,67,47,30.14,30.02,18,8,20,0.00
2014-7-4,83,71,60,73,64,54,91,79,65,30.03,29.77,26,12,30,0.04
2014-7-5,94,79,66,75,68,60,97,71,35,29.77,29.67,24,3,28,0.01
2014-7-6,81,72,61,65,59,54,88,65,47,29.85,29.72,26,10,29,0.02
2014-7-7,71,64,58,63,58,52,95,82,56,29.88,29.74,30,8,35,0.06
2014-7-8,75,65,53,61,56,51,93,75,54,30.00,29.88,22,9,23,0.00
2014-7-9,78,66,54,62,58,52,94,75,52,30.01,29.88,11,4,11,0.00
2014-7-10,78,68,59,68,62,56,91,81,70,29.89,29.72,18,8,18,0.00
2014-7-11,82,72,60,68,62,53,97,72,42,30.03,29.75,22,7,23,0.00
2014-7-12,81,69,59,63,58,54,91,70,46,30.07,29.95,23,7,24,0.00
2014-7-13,72,63,53,55,47,40,93,61,35,30.06,29.99,29,10,31,0.00
2014-7-14,68,58,47,52,48,44,94,71,50,30.27,30.06,25,10,27,0.00
2014-7-15,77,61,45,56,50,43,96,69,40,30.26,30.06,13,4,25,0.00
2014-7-16,77,66,57,57,53,46,89,64,37,30.07,29.92,10,3,10,0.00
2014-7-17,83,69,54,63,57,51,90,68,44,29.94,29.73,22,8,23,0.00
2014-7-18,84,71,60,66,60,54,91,69,46,29.77,29.60,23,9,24,0.00
2014-7-19,80,68,53,63,57,51,94,70,47,29.84,29.64,19,6,21,0.00
2014-7-20,92,78,64,66,63,56,93,63,33,29.66,29.57,15,5,18,0.00
2014-7-21,88,73,62,76,66,61,96,81,64,29.87,29.56,55,9,55,0.84
2014-7-22,82,70,60,67,62,59,97,79,50,30.18,29.88,12,4,12,0.00
2014-7-23,81,71,63,66,62,60,92,75,54,30.20,30.02,21,10,22,0.00
2014-7-24,78,70,62,68,62,57,90,78,67,30.03,29.59,35,14,36,0.03
2014-7-25,81,71,64,64,56,46,95,62,34,29.80,29.57,24,8,24,0.00
2014-7-26,75,65,54,56,53,50,88,66,43,29.97,29.73,37,14,39,0.00
2014-7-27,68,61,54,56,54,51,95,80,61,30.27,29.97,26,10,29,0.00
2014-7-28,75,62,47,56,52,45,97,73,46,30.33,30.20,12,3,16,0.00
2014-7-29,81,67,53,63,56,50,92,69,48,30.20,30.07,14,3,14,0.00
2014-7-30,82,70,57,62,58,54,92,68,47,30.11,30.03,12,4,13,0.00
2014-7-31,85,71,57,62,57,53,92,64,36,30.05,29.95,11,2,11,0.00
2014-8-1,86,72,60,64,59,55,86,65,41,30.02,29.95,13,5,17,0.00
2014-8-2,85,72,58,66,62,56,95,73,42,30.06,30.01,15,4,15,0.02
2014-8-3,77,67,61,66,62,58,95,85,65,30.10,30.04,18,6,20,0.29
2014-8-4,73,64,57,60,57,54,93,80,60,30.13,30.06,17,7,18,0.26
2014-8-5,74,65,56,63,58,53,92,78,59,30.11,30.03,15,5,15,0.00
2014-8-6,69,65,61,64,62,59,94,87,78,30.04,29.95,17,6,17,0.06
2014-8-7,77,68,62,67,63,60,95,85,69,29.97,29.90,14,5,15,0.00
2014-8-8,79,70,61,69,64,60,97,82,61,29.96,29.90,18,6,19,0.00
2014-8-9,80,70,62,69,65,61,97,87,63,29.99,29.92,17,4,18,0.21
2014-8-10,74,66,56,65,56,50,94,73,46,30.18,29.98,24,9,27,0.00
2014-8-11,78,65,49,58,52,47,95,68,40,30.25,30.13,14,3,17,0.00
2014-8-12,85,70,56,61,55,50,84,62,36,30.14,29.95,11,4,12,0.00
2014-8-13,88,74,62,62,59,56,81,62,39,29.98,29.89,27,11,29,0.00
2014-8-14,86,74,65,70,64,60,86,72,54,29.92,29.74,24,12,25,0.00
2014-8-15,80,71,64,71,66,61,95,85,71,29.78,29.73,15,5,15,0.00
2014-8-16,72,68,66,70,67,64,97,94,87,29.91,29.74,20,7,22,1.78
2014-8-17,84,71,64,69,64,59,97,82,52,29.92,29.76,29,4,30,0.08
2014-8-18,78,69,61,65,61,58,91,77,53,29.78,29.73,21,8,23,0.00
2014-8-19,85,72,60,66,62,57,93,72,45,29.75,29.64,11,3,12,0.00
2014-8-20,80,69,63,70,65,60,96,86,69,29.68,29.60,25,8,26,0.91
2014-8-21,79,69,62,67,64,59,98,84,59,29.89,29.64,19,8,21,0.01
2014-8-22,75,67,62,68,64,60,97,90,76,30.04,29.89,17,6,18,0.13
2014-8-23,67,62,59,65,60,56,98,94,89,30.04,29.64,28,12,32,0.86
2014-8-24,66,60,54,65,56,47,98,85,63,29.74,29.59,31,12,33,0.00
2014-8-25,57,53,50,50,48,45,91,81,71,30.15,29.74,33,14,36,0.00
2014-8-26,58,52,44,54,50,43,96,90,72,30.23,30.14,10,3,11,0.10
2014-8-27,75,63,48,63,57,47,98,83,61,30.19,29.99,15,5,19,0.01
2014-8-28,73,65,58,68,63,57,97,91,82,29.99,29.76,13,5,14,0.00
2014-8-29,69,63,52,63,60,50,98,88,73,29.94,29.72,26,9,29,0.01
2014-8-30,74,60,48,59,54,47,97,82,57,29.96,29.64,22,7,22,0.38
2014-8-31,72,64,56,63,59,52,97,85,57,29.71,29.55,28,6,28,0.27
2014-9-1,71,60,49,58,51,44,97,74,41,29.83,29.67,21,6,25,0.01
2014-9-2,76,64,51,56,50,47,88,64,38,29.84,29.71,19,6,21,0.00
2014-9-3,81,67,52,65,56,48,89,71,48,29.72,29.51,23,9,29,0.00
2014-9-4,66,59,51,62,54,48,96,82,62,30.11,29.48,31,15,39,0.16
2014-9-5,71,56,42,53,46,41,97,72,38,30.24,30.11,17,6,19,0.01
2014-9-6,77,63,49,53,46,41,79,57,33,30.19,30.00,17,5,21,0.00
2014-9-7,82,66,51,59,53,46,88,65,34,30.00,29.66,16,5,18,0.00
2014-9-8,86,67,54,62,55,47,92,70,27,29.82,29.60,23,6,25,0.00
2014-9-9,54,48,43,51,44,37,94,88,79,30.12,29.80,25,13,32,0.22
2014-9-10,49,43,37,38,36,32,91,77,55,30.39,30.11,24,12,25,0.10
2014-9-11,49,42,34,40,35,32,94,78,55,30.54,30.39,15,6,16,0.00
2014-9-12,54,45,38,39,34,28,91,69,42,30.55,30.23,13,4,16,0.00
2014-9-13,61,46,39,44,38,34,91,76,46,30.23,30.02,27,9,29,0.00
2014-9-14,58,45,33,42,37,32,96,75,45,30.25,30.12,15,5,19,0.00
2014-9-15,66,51,37,43,38,33,88,65,36,30.30,30.12,22,5,22,0.00
2014-9-16,74,57,43,52,45,38,85,64,39,30.12,29.90,10,4,11,0.00
2014-9-17,73,59,42,56,48,41,96,70,44,29.96,29.90,11,4,15,0.00
2014-9-18,79,64,48,65,56,46,93,78,58,29.96,29.60,27,11,30,0.00
2014-9-19,83,70,58,62,57,50,91,67,33,29.75,29.52,31,10,35,0.01
2014-9-20,69,60,52,55,48,40,92,68,35,30.11,29.74,32,10,38,0.00
2014-9-21,71,57,42,50,44,39,91,66,40,30.28,30.11,13,4,19,0.00
2014-9-22,80,61,44,51,47,41,90,63,33,30.19,29.90,22,10,26,0.00
2014-9-23,70,60,54,60,55,50,93,84,69,29.91,29.86,24,10,25,0.00
2014-9-24,84,67,56,64,57,55,97,76,39,29.97,29.90,12,5,13,0.00
2014-9-25,88,71,57,63,56,47,92,64,24,30.00,29.89,21,8,22,0.00
2014-9-26,89,74,62,63,60,55,90,65,33,29.89,29.73,33,14,36,0.00
2014-9-27,82,70,60,63,59,54,86,69,48,29.94,29.76,29,8,29,0.00
2014-9-28,63,54,47,54,48,44,90,81,72,30.27,29.94,28,15,31,0.00
2014-9-29,58,49,42,49,45,40,94,85,72,30.27,29.95,22,10,22,0.00
2014-9-30,54,52,50,52,50,48,97,93,84,29.95,29.34,26,13,28,0.23
2014-10-1,61,55,50,53,50,46,97,85,71,29.85,29.44,27,13,29,0.00
2014-10-2,59,46,38,47,40,29,100,80,52,30.10,29.82,34,12,40,0.01
2014-10-3,42,36,27,29,23,17,81,58,45,30.19,30.10,44,20,52,0.00
2014-10-4,47,35,22,37,26,20,91,74,41,30.18,29.82,14,5,16,0.00
2014-10-5,53,44,36,47,38,33,94,82,64,29.81,29.68,39,12,40,0.01
2014-10-6,60,47,34,45,39,32,94,76,44,29.72,29.52,38,13,43,0.00
2014-10-7,57,48,40,43,37,27,88,66,34,29.97,29.57,35,15,38,0.00
2014-10-8,54,42,31,35,30,27,89,64,38,30.19,29.96,11,4,12,0.00
2014-10-9,54,44,35,35,31,26,84,63,42,30.33,30.19,13,4,15,0.00
2014-10-10,58,45,29,35,30,24,86,59,35,30.34,30.16,13,4,15,0.00
2014-10-11,72,53,37,48,38,28,71,58,42,30.16,29.58,26,11,27,0.00
2014-10-12,55,50,45,47,44,39,92,79,63,29.85,29.50,26,7,26,0.03
2014-10-13,63,48,37,44,37,33,91,68,33,30.03,29.85,20,6,22,0.00
2014-10-14,67,50,35,42,36,31,91,62,34,30.05,29.90,25,7,25,0.00
2014-10-15,76,57,42,44,39,34,75,52,30,29.91,29.49,27,11,30,0.00
2014-10-16,58,52,43,47,43,37,84,73,55,29.93,29.43,40,17,43,0.00
2014-10-17,49,44,39,42,38,35,89,81,69,30.27,29.93,33,12,33,0.00
2014-10-18,55,45,39,42,39,36,91,80,60,30.26,29.88,22,9,25,0.00
2014-10-19,69,54,43,47,40,35,86,63,37,30.02,29.86,26,6,26,0.00
2014-10-20,70,53,36,44,38,32,90,59,30,30.07,29.92,20,6,21,0.00
2014-10-21,78,61,47,51,42,35,67,50,35,29.92,29.62,29,13,32,0.00
2014-10-22,66,57,46,49,44,36,82,62,39,29.90,29.60,27,10,30,0.00
2014-10-23,71,53,37,39,34,31,79,53,25,29.91,29.80,16,6,19,0.00
2014-10-24,69,54,43,42,35,30,65,50,31,30.05,29.80,30,8,32,0.00
2014-10-25,61,49,40,36,32,30,71,54,34,30.18,29.91,18,4,20,0.00
2014-10-26,68,55,41,44,38,31,68,53,39,29.91,29.48,31,10,33,0.00
2014-10-27,50,42,36,36,32,29,94,70,53,29.81,29.56,34,13,35,0.01
2014-10-28,40,36,33,34,32,30,94,86,73,30.20,29.81,29,14,29,0.03
2014-10-29,47,38,27,43,34,24,96,84,57,30.20,29.97,21,6,21,0.07
2014-10-30,40,32,24,39,30,21,96,90,78,30.66,30.02,19,9,21,0.01
2014-10-31,38,27,15,24,17,12,100,70,35,30.67,30.17,31,13,33,0.00
2014-11-1,48,37,30,28,22,18,69,56,43,30.17,29.78,25,13,29,0.00
2014-11-2,60,42,34,40,32,25,88,68,45,29.83,29.67,17,9,18,0.00
2014-11-3,42,37,29,35,31,26,92,80,64,30.02,29.83,28,11,30,0.00
2014-11-4,47,37,26,34,30,24,93,77,46,30.09,29.92,19,7,19,0.01
2014-11-5,42,37,28,39,34,26,93,86,76,30.34,29.86,38,13,41,0.01
2014-11-6,49,36,24,37,29,22,95,76,53,30.41,29.90,21,6,21,0.02
2014-11-7,57,43,34,44,34,25,78,71,60,30.24,29.68,42,18,45,0.02
2014-11-8,39,33,24,30,26,20,86,75,67,30.25,29.87,21,6,21,0.00
2014-11-9,34,26,20,31,20,13,91,78,58,29.94,29.81,19,7,21,0.00
2014-11-10,21,17,12,19,12,5,91,81,68,30.43,29.86,23,11,24,0.13
2014-11-11,15,10,5,11,6,1,90,83,75,30.63,30.43,20,8,21,0.00
2014-11-12,18,14,8,14,10,3,89,84,79,30.77,30.63,24,14,25,0.00
2014-11-13,12,7,-2,6,2,-6,94,80,72,30.77,30.56,17,6,17,0.12
2014-11-14,14,2,-10,6,-2,-14,92,82,68,30.56,30.41,8,2,9,0.00
2014-11-15,10,2,-7,5,-2,-10,89,83,77,30.50,30.29,24,7,25,0.00
2014-11-16,19,11,-2,15,5,-6,89,76,62,30.34,29.97,39,16,44,0.00
2014-11-17,15,9,0,9,4,-5,92,78,68,30.39,30.26,30,12,34,0.00
2014-11-18,30,16,4,22,11,1,86,79,68,30.26,29.82,41,13,42,0.00
2014-11-19,21,17,8,14,11,4,89,78,68,30.23,30.07,33,14,36,0.00
2014-11-20,19,14,8,16,9,4,91,82,69,30.26,30.06,15,6,16,0.00
2014-11-21,45,29,15,33,23,13,92,80,61,30.06,29.77,18,7,19,0.00
2014-11-22,42,34,26,36,29,23,95,83,64,29.77,29.38,15,5,17,0.02
2014-11-23,38,26,15,34,21,11,93,81,68,29.82,29.43,44,18,47,0.00
2014-11-24,24,16,8,20,9,3,88,75,43,30.16,29.82,25,11,28,0.00
2014-11-25,31,26,13,30,24,10,96,90,82,30.23,29.80,34,8,37,0.00
2014-11-26,13,5,-6,10,2,-10,89,84,76,30.66,30.23,20,5,23,0.16
2014-11-27,11,2,-8,8,-1,-12,89,86,84,30.66,30.08,26,9,28,0.03
2014-11-28,17,12,7,14,9,4,90,87,82,30.09,29.56,18,11,21,0.00
2014-11-29,22,12,-1,19,8,-7,91,82,69,30.09,29.49,31,15,33,0.08
2014-11-30,8,0,-6,-2,-7,-12,80,72,62,30.77,30.08,27,10,27,0.00
2014-12-1,11,0,-13,5,-5,-17,84,78,68,30.80,30.10,27,7,32,0.00
2014-12-2,21,14,6,15,8,2,87,79,69,30.24,30.05,22,6,22,0.00
2014-12-3,23,13,6,18,9,3,90,83,72,30.37,30.15,16,6,18,0.00
2014-12-4,25,18,9,19,13,6,90,82,68,30.15,30.01,14,3,16,0.00
2014-12-5,24,18,12,20,14,10,93,85,72,30.62,30.07,18,5,19,0.00
2014-12-6,29,22,15,22,18,12,90,83,67,30.64,30.17,24,11,26,0.00
2014-12-7,44,32,25,36,27,21,92,83,72,30.20,30.00,34,10,39,0.00
2014-12-8,30,23,11,27,20,9,99,86,77,30.51,30.18,29,11,32,0.00
2014-12-9,30,20,10,25,17,7,94,90,82,30.50,30.21,19,8,20,0.00
2014-12-10,36,24,16,29,21,14,92,88,73,30.22,30.09,16,8,16,0.00
2014-12-11,40,29,21,33,26,18,96,88,71,30.11,29.97,23,9,24,0.00
2014-12-12,44,34,27,35,29,24,94,83,67,29.98,29.89,16,7,16,0.00
2014-12-13,40,33,27,34,30,25,94,88,79,29.89,29.73,12,7,13,0.00
2014-12-14,34,28,26,32,27,25,96,95,93,30.04,29.73,21,11,22,0.00
2014-12-15,28,22,19,26,20,15,100,91,83,30.42,30.04,33,17,34,0.00
2014-12-16,20,17,14,16,13,10,87,82,74,30.50,30.41,20,7,21,0.00